Time;durP1;ratioP1;P1;durP2;ratioP2;P2;SDS_P1;SDS_P2;PMS_P1;PMS_P2;Temp;Humidity;BMP_temperature;BMP_pressure;BME280_temperature;BME280_humidity;BME280_pressure;Samples;Min_cycle;Max_cycle;Signal;HPM_P1;HPM_P2
2023/03/13 00:02:23;;;;;;;10.20;10.00;;;20.70;49.70;;;;;;5031365;28;20540;-56
2023/03/13 00:04:51;;;;;;;10.67;10.37;;;20.70;49.70;;;;;;5031392;28;20524;-52
2023/03/13 00:07:18;;;;;;;10.47;10.17;;;20.60;49.70;;;;;;5031672;28;20493;-54
2023/03/13 00:09:45;;;;;;;10.97;10.67;;;20.70;49.80;;;;;;5032010;28;20477;-54
2023/03/13 00:12:12;;;;;;;10.87;10.57;;;20.60;49.70;;;;;;5032282;28;20886;-52
2023/03/13 00:14:39;;;;;;;11.80;11.27;;;20.60;49.80;;;;;;5032241;28;20873;-56
2023/03/13 00:17:06;;;;;;;10.77;10.43;;;20.60;49.80;;;;;;5031125;28;20507;-53
2023/03/13 00:19:33;;;;;;;10.80;10.50;;;20.60;49.80;;;;;;5031617;28;20473;-53
2023/03/13 00:22:01;;;;;;;10.70;10.40;;;20.60;49.80;;;;;;5031097;28;20567;-58
2023/03/13 00:24:28;;;;;;;10.43;10.03;;;20.60;49.80;;;;;;5029844;28;20533;-58
2023/03/13 00:26:55;;;;;;;10.57;10.27;;;20.60;49.80;;;;;;5031439;28;20504;-53
2023/03/13 00:29:22;;;;;;;11.67;11.23;;;20.60;49.80;;;;;;5031662;28;20821;-57
2023/03/13 00:31:49;;;;;;;10.60;10.30;;;20.50;49.80;;;;;;5031355;28;20476;-51
2023/03/13 00:34:16;;;;;;;11.20;10.70;;;20.60;49.80;;;;;;5031582;28;20541;-54
2023/03/13 00:36:43;;;;;;;11.00;10.70;;;20.50;49.80;;;;;;5031555;28;20485;-57
2023/03/13 00:39:11;;;;;;;10.40;10.10;;;20.50;49.80;;;;;;5031613;28;20484;-55
2023/03/13 00:41:38;;;;;;;11.00;10.40;;;20.50;49.80;;;;;;5034841;28;20488;-58
2023/03/13 00:44:05;;;;;;;11.43;11.03;;;20.50;49.80;;;;;;5035824;28;20473;-58
2023/03/13 00:46:32;;;;;;;11.13;10.63;;;20.50;49.80;;;;;;5035190;28;20449;-59
2023/03/13 00:48:59;;;;;;;10.43;10.13;;;20.50;49.80;;;;;;5035378;28;20477;-55
2023/03/13 00:51:27;;;;;;;12.00;11.60;;;20.50;49.90;;;;;;5035025;28;20476;-55
2023/03/13 00:53:55;;;;;;;11.50;11.10;;;20.50;50.00;;;;;;5034947;28;20453;-57
2023/03/13 00:56:23;;;;;;;10.23;9.93;;;20.40;49.90;;;;;;5035244;28;20483;-58
2023/03/13 00:58:50;;;;;;;10.43;10.13;;;20.50;50.00;;;;;;5034660;28;20527;-57
2023/03/13 01:01:20;;;;;;;11.00;10.60;;;20.50;50.00;;;;;;5034203;28;20472;-56
2023/03/13 01:03:49;;;;;;;11.53;11.23;;;20.50;50.00;;;;;;5034545;28;20571;-57
2023/03/13 01:06:18;;;;;;;11.70;11.20;;;20.40;49.90;;;;;;5034254;28;20479;-53
2023/03/13 01:08:45;;;;;;;10.33;10.00;;;20.40;50.10;;;;;;5034922;28;20496;-54
2023/03/13 01:11:14;;;;;;;10.07;9.77;;;20.40;50.10;;;;;;5034624;28;20511;-54
2023/03/13 01:13:43;;;;;;;11.10;10.70;;;20.40;50.10;;;;;;5034673;28;20480;-57
2023/03/13 01:16:11;;;;;;;10.70;10.30;;;20.40;50.10;;;;;;5034598;28;20449;-59
2023/03/13 01:18:40;;;;;;;10.50;10.20;;;20.40;50.10;;;;;;5034685;28;20496;-54
2023/03/13 01:21:07;;;;;;;10.90;10.60;;;20.40;50.20;;;;;;5018599;28;20484;-57
2023/03/13 01:23:35;;;;;;;10.93;10.53;;;20.40;50.20;;;;;;5034427;28;20917;-53
2023/03/13 01:26:04;;;;;;;11.70;11.27;;;20.40;50.30;;;;;;5034494;28;20476;-57
2023/03/13 01:28:31;;;;;;;10.80;10.50;;;20.30;50.20;;;;;;5034341;28;20496;-54
2023/03/13 01:30:59;;;;;;;9.90;9.60;;;20.40;50.30;;;;;;5034512;28;20488;-57
2023/03/13 01:33:26;;;;;;;11.50;11.10;;;20.30;50.20;;;;;;5033980;28;20468;-55
2023/03/13 01:36:01;;;;;;;11.67;11.27;;;20.30;50.20;;;;;;5034280;28;20532;-58
2023/03/13 01:38:28;;;;;;;11.60;11.20;;;20.30;50.20;;;;;;5016817;28;20544;-57
2023/03/13 01:40:55;;;;;;;12.10;11.70;;;20.30;50.20;;;;;;5034244;28;20445;-55
2023/03/13 01:43:24;;;;;;;10.77;10.37;;;20.30;50.20;;;;;;5034087;28;20511;-55
2023/03/13 01:45:57;;;;;;;11.00;10.70;;;20.30;50.20;;;;;;5034087;28;20480;-57
2023/03/13 01:48:31;;;;;;;12.20;11.70;;;20.30;50.30;;;;;;5034066;28;20508;-58
2023/03/13 01:51:01;;;;;;;11.20;10.80;;;20.30;50.20;;;;;;5033740;28;20477;-55
2023/03/13 01:53:30;;;;;;;11.70;11.30;;;20.30;50.30;;;;;;5014833;28;20525;-56
2023/03/13 01:55:59;;;;;;;10.50;10.20;;;20.30;50.30;;;;;;5025364;28;20476;-58
2023/03/13 01:58:28;;;;;;;11.10;10.80;;;20.30;50.30;;;;;;5034373;28;20501;-57
2023/03/13 02:00:55;;;;;;;10.67;10.27;;;20.30;50.40;;;;;;5034122;28;20492;-57
2023/03/13 02:03:23;;;;;;;10.33;10.03;;;20.30;50.40;;;;;;5033622;28;20473;-56
2023/03/13 02:05:52;;;;;;;10.80;10.50;;;20.30;50.40;;;;;;5033673;28;20499;-54
2023/03/13 02:08:23;;;;;;;10.70;10.40;;;20.30;50.40;;;;;;5034090;28;20508;-55
2023/03/13 02:10:53;;;;;;;11.33;11.03;;;20.20;50.40;;;;;;5034109;28;20980;-58
2023/03/13 02:13:20;;;;;;;11.20;10.90;;;20.30;50.40;;;;;;5033909;28;20488;-54
2023/03/13 02:15:48;;;;;;;11.70;11.30;;;20.30;50.40;;;;;;5033634;28;20532;-54
2023/03/13 02:18:16;;;;;;;12.40;12.00;;;20.20;50.40;;;;;;5033087;28;20556;-54
2023/03/13 02:20:43;;;;;;;10.43;10.13;;;20.20;50.40;;;;;;5033498;28;20468;-57
2023/03/13 02:23:19;;;;;;;10.90;10.50;;;20.20;50.40;;;;;;5033117;28;20588;-56
2023/03/13 02:25:49;;;;;;;11.43;11.03;;;20.20;50.30;;;;;;5033564;28;20452;-56
2023/03/13 02:28:19;;;;;;;11.50;11.10;;;20.20;50.40;;;;;;5033644;28;20826;-57
2023/03/13 02:30:48;;;;;;;11.20;10.90;;;20.20;50.40;;;;;;5033967;28;20442;-54
2023/03/13 02:33:18;;;;;;;9.93;9.63;;;20.20;50.40;;;;;;5033226;28;20806;-57
2023/03/13 02:35:46;;;;;;;10.43;9.97;;;20.20;50.50;;;;;;5033576;28;20485;-55
2023/03/13 02:38:18;;;;;;;9.40;9.20;;;20.20;50.40;;;;;;5033287;28;20504;-53
2023/03/13 02:40:48;;;;;;;10.50;10.20;;;20.20;50.40;;;;;;5033614;28;20452;-55
2023/03/13 02:43:21;;;;;;;9.37;9.17;;;20.20;50.40;;;;;;5033174;28;20568;-58
2023/03/13 02:46:05;;;;;;;10.60;10.30;;;20.10;50.40;;;;;;5033315;28;20503;-54
2023/03/13 02:48:34;;;;;;;10.57;10.37;;;20.10;50.40;;;;;;5033191;28;20556;-48
2023/03/13 02:51:04;;;;;;;11.00;10.70;;;20.20;50.50;;;;;;5032820;28;20445;-50
2023/03/13 02:53:31;;;;;;;10.23;9.93;;;20.10;50.50;;;;;;5032513;28;20465;-52
2023/03/13 02:56:00;;;;;;;10.57;10.17;;;20.10;50.50;;;;;;5032633;28;20508;-50
2023/03/13 02:58:27;;;;;;;10.30;10.00;;;20.10;50.50;;;;;;5032583;28;20501;-53
2023/03/13 03:00:54;;;;;;;10.43;9.93;;;20.10;50.50;;;;;;5032416;28;20480;-51
2023/03/13 03:03:20;;;;;;;9.53;9.27;;;20.10;50.60;;;;;;5031325;28;20900;-51
2023/03/13 03:05:47;;;;;;;10.63;10.33;;;20.10;50.70;;;;;;5032331;28;20533;-51
2023/03/13 03:08:14;;;;;;;10.90;10.60;;;20.10;50.70;;;;;;5032626;28;20505;-52
2023/03/13 03:10:41;;;;;;;10.57;10.27;;;20.10;50.70;;;;;;5032503;28;20476;-52
2023/03/13 03:13:09;;;;;;;9.83;9.63;;;20.10;50.70;;;;;;5032342;28;20484;-50
2023/03/13 03:15:36;;;;;;;11.27;10.87;;;20.10;50.70;;;;;;5032189;28;20524;-50
2023/03/13 03:18:03;;;;;;;11.03;10.73;;;20.10;50.80;;;;;;5032409;28;20503;-54
2023/03/13 03:20:30;;;;;;;10.57;10.27;;;20.10;50.80;;;;;;5032282;28;20473;-52
2023/03/13 03:22:57;;;;;;;10.63;10.23;;;20.10;50.80;;;;;;5032189;28;20508;-51
2023/03/13 03:25:24;;;;;;;10.60;10.30;;;20.00;50.70;;;;;;5032015;28;20484;-52
2023/03/13 03:27:50;;;;;;;10.07;9.87;;;20.10;50.80;;;;;;5032073;28;20540;-50
2023/03/13 03:30:19;;;;;;;9.50;9.30;;;20.10;50.90;;;;;;5032101;28;20508;-54
2023/03/13 03:32:46;;;;;;;12.23;11.17;;;20.10;50.90;;;;;;5032119;28;20872;-51
2023/03/13 03:35:13;;;;;;;9.40;9.20;;;20.10;50.90;;;;;;5032222;28;20488;-51
2023/03/13 03:37:40;;;;;;;10.30;10.00;;;20.10;50.90;;;;;;5032340;28;20501;-54
2023/03/13 03:40:08;;;;;;;11.03;10.57;;;20.10;50.90;;;;;;5032695;28;20968;-55
2023/03/13 03:42:35;;;;;;;10.47;10.20;;;20.10;50.90;;;;;;5031570;28;20806;-55
2023/03/13 03:45:02;;;;;;;10.63;10.33;;;20.10;50.90;;;;;;5031792;28;20484;-57
2023/03/13 03:47:30;;;;;;;8.00;7.80;;;20.10;50.90;;;;;;5031529;28;20516;-55
2023/03/13 03:49:57;;;;;;;8.37;8.17;;;20.10;50.90;;;;;;5031945;28;20871;-56
2023/03/13 03:52:24;;;;;;;8.03;7.83;;;20.00;50.90;;;;;;5031694;28;20484;-54
2023/03/13 03:54:51;;;;;;;9.40;9.10;;;20.10;51.00;;;;;;5031274;28;20532;-50
2023/03/13 03:57:17;;;;;;;9.17;8.97;;;20.00;50.90;;;;;;5031464;28;20499;-55
2023/03/13 03:59:44;;;;;;;8.40;8.20;;;20.00;50.80;;;;;;5031750;28;20527;-51
2023/03/13 04:02:11;;;;;;;7.63;7.53;;;20.00;50.80;;;;;;5031240;28;20861;-50
2023/03/13 04:04:40;;;;;;;7.20;7.00;;;20.10;50.90;;;;;;5031654;28;20594;-53
2023/03/13 04:07:06;;;;;;;9.63;9.43;;;20.10;50.90;;;;;;5031490;28;20505;-51
2023/03/13 04:09:33;;;;;;;8.93;8.53;;;20.00;50.80;;;;;;5031206;28;20483;-51
2023/03/13 04:12:00;;;;;;;7.87;7.67;;;20.00;50.80;;;;;;5031403;28;20540;-51
2023/03/13 04:14:27;;;;;;;8.17;7.97;;;20.00;50.80;;;;;;5031078;28;20484;-51
2023/03/13 04:16:54;;;;;;;8.00;7.80;;;20.00;50.80;;;;;;5031057;28;20544;-51
2023/03/13 04:19:21;;;;;;;8.37;8.07;;;20.00;50.90;;;;;;5031462;28;20983;-51
2023/03/13 04:21:49;;;;;;;8.90;8.70;;;20.00;51.10;;;;;;5031188;28;20965;-51
2023/03/13 04:24:16;;;;;;;8.83;8.50;;;20.00;51.10;;;;;;5031073;28;20573;-51
2023/03/13 04:26:43;;;;;;;8.80;8.60;;;20.00;51.00;;;;;;5031278;28;20488;-53
2023/03/13 04:29:10;;;;;;;9.20;8.90;;;20.00;51.00;;;;;;5031228;28;20481;-51
2023/03/13 04:31:36;;;;;;;8.57;8.37;;;20.00;51.00;;;;;;5031044;28;20523;-50
2023/03/13 04:34:03;;;;;;;9.53;9.23;;;20.00;51.00;;;;;;5031114;28;20480;-50
2023/03/13 04:36:30;;;;;;;9.00;8.70;;;20.00;51.10;;;;;;5031234;28;20460;-50
2023/03/13 04:38:58;;;;;;;8.87;8.57;;;20.00;51.10;;;;;;5031085;28;20883;-52
2023/03/13 04:41:25;;;;;;;8.73;8.53;;;20.00;51.10;;;;;;5031044;28;20485;-52
2023/03/13 04:43:52;;;;;;;8.70;8.50;;;20.00;51.00;;;;;;5031161;28;20480;-50
2023/03/13 04:46:19;;;;;;;9.30;9.10;;;20.00;51.10;;;;;;5031021;28;20854;-50
2023/03/13 04:48:46;;;;;;;9.00;8.80;;;20.00;51.10;;;;;;5031130;28;20507;-51
2023/03/13 04:51:13;;;;;;;8.20;8.00;;;19.90;51.10;;;;;;5031005;28;20449;-50
2023/03/13 04:53:40;;;;;;;8.60;8.20;;;19.90;51.20;;;;;;5030881;28;20499;-50
2023/03/13 04:56:09;;;;;;;9.07;8.77;;;19.90;51.30;;;;;;5031076;28;20476;-50
2023/03/13 04:58:36;;;;;;;8.70;8.50;;;19.90;51.30;;;;;;5030776;28;20552;-51
2023/03/13 05:01:02;;;;;;;8.70;8.50;;;19.90;51.40;;;;;;5031157;28;20532;-50
2023/03/13 05:03:29;;;;;;;8.67;8.47;;;19.90;51.40;;;;;;5030694;28;20922;-51
2023/03/13 05:05:56;;;;;;;7.87;7.77;;;19.90;51.50;;;;;;5030632;28;20477;-51
2023/03/13 05:08:23;;;;;;;8.33;8.13;;;19.90;51.40;;;;;;5030757;28;20504;-51
2023/03/13 05:10:50;;;;;;;9.10;8.90;;;19.90;51.50;;;;;;5030922;28;20518;-51
2023/03/13 05:13:18;;;;;;;8.30;8.10;;;19.90;51.50;;;;;;5030479;28;20477;-51
2023/03/13 05:15:45;;;;;;;8.27;8.07;;;19.90;51.60;;;;;;5030948;28;20481;-51
2023/03/13 05:18:12;;;;;;;8.73;8.53;;;19.90;51.70;;;;;;5030210;28;20497;-53
2023/03/13 05:20:39;;;;;;;8.63;8.43;;;19.90;51.70;;;;;;5030659;28;20964;-50
2023/03/13 05:23:06;;;;;;;8.47;8.27;;;19.90;51.70;;;;;;5030825;28;20893;-53
2023/03/13 05:25:33;;;;;;;8.50;8.30;;;19.90;51.70;;;;;;5030977;28;20473;-50
2023/03/13 05:28:00;;;;;;;8.90;8.70;;;19.90;51.70;;;;;;5032697;28;20540;-51
2023/03/13 05:30:28;;;;;;;9.23;9.03;;;19.90;51.60;;;;;;5033848;28;20484;-50
2023/03/13 05:32:55;;;;;;;9.00;8.57;;;19.90;51.30;;;;;;5033577;28;20481;-50
2023/03/13 05:35:22;;;;;;;10.17;9.77;;;19.90;51.10;;;;;;5034141;28;20477;-50
2023/03/13 05:37:49;;;;;;;10.27;9.73;;;20.00;51.70;;;;;;5034114;28;20504;-50
2023/03/13 05:40:16;;;;;;;10.57;9.60;;;20.00;52.50;;;;;;5034232;28;20476;-50
2023/03/13 05:42:44;;;;;;;10.47;10.07;;;20.00;52.90;;;;;;5029275;28;20536;-53
2023/03/13 05:45:12;;;;;;;10.40;9.70;;;20.00;53.90;;;;;;5033850;28;20511;-56
2023/03/13 05:47:40;;;;;;;10.23;9.73;;;20.00;53.90;;;;;;5033974;28;21055;-55
2023/03/13 05:50:08;;;;;;;11.00;10.50;;;20.00;53.60;;;;;;5034053;28;20456;-58
2023/03/13 05:52:35;;;;;;;11.43;10.73;;;20.00;53.50;;;;;;5033914;28;20473;-57
2023/03/13 05:55:02;;;;;;;10.47;9.90;;;20.00;53.40;;;;;;5034039;28;20480;-53
2023/03/13 05:57:29;;;;;;;11.23;10.63;;;20.00;53.30;;;;;;5033822;28;20544;-56
2023/03/13 05:59:56;;;;;;;11.63;11.00;;;20.00;53.10;;;;;;5033881;28;20495;-58
2023/03/13 06:02:22;;;;;;;11.30;10.90;;;20.00;53.00;;;;;;5033804;28;20476;-56
2023/03/13 06:04:51;;;;;;;9.87;9.47;;;20.00;52.80;;;;;;5033812;28;20523;-56
2023/03/13 06:07:17;;;;;;;10.40;10.03;;;20.00;52.70;;;;;;5033707;28;20931;-53
2023/03/13 06:09:44;;;;;;;12.30;11.60;;;20.00;52.50;;;;;;5034071;28;20477;-55
2023/03/13 06:12:12;;;;;;;11.07;10.50;;;20.00;52.40;;;;;;5033589;28;20480;-55
2023/03/13 06:14:39;;;;;;;11.00;10.40;;;20.00;52.30;;;;;;5033807;28;20488;-54
2023/03/13 06:17:06;;;;;;;10.17;9.67;;;20.00;52.30;;;;;;5033683;28;20505;-53
2023/03/13 06:19:33;;;;;;;9.93;9.53;;;20.00;52.20;;;;;;5033826;28;20528;-53
2023/03/13 06:22:01;;;;;;;9.73;9.43;;;20.00;52.10;;;;;;5033538;28;20473;-54
2023/03/13 06:24:28;;;;;;;10.27;9.60;;;20.00;52.00;;;;;;5033371;28;20572;-55
2023/03/13 06:26:55;;;;;;;10.27;9.87;;;20.00;51.90;;;;;;5033405;28;20497;-53
2023/03/13 06:29:23;;;;;;;10.20;9.80;;;20.00;51.80;;;;;;5033513;28;20923;-53
2023/03/13 06:31:50;;;;;;;10.13;9.73;;;20.00;51.80;;;;;;5033634;28;20988;-54
2023/03/13 06:34:17;;;;;;;9.30;9.10;;;20.00;51.70;;;;;;5033351;28;20484;-53
2023/03/13 06:36:44;;;;;;;10.10;9.80;;;20.00;51.60;;;;;;5033182;28;20480;-55
2023/03/13 06:39:13;;;;;;;10.87;10.37;;;20.00;51.50;;;;;;5033362;28;20481;-53
2023/03/13 06:41:40;;;;;;;10.10;9.70;;;20.00;51.50;;;;;;5033031;28;20485;-53
2023/03/13 06:44:06;;;;;;;11.23;10.60;;;20.00;51.50;;;;;;5032924;28;20623;-53
2023/03/13 06:46:33;;;;;;;9.73;9.50;;;20.00;51.40;;;;;;5032822;28;20487;-56
2023/03/13 06:49:04;;;;;;;12.97;12.57;;;20.00;51.40;;;;;;5033161;28;20480;-56
2023/03/13 06:51:32;;;;;;;12.00;11.50;;;20.00;51.30;;;;;;5033045;28;20450;-54
2023/03/13 06:53:59;;;;;;;11.87;11.47;;;20.00;51.30;;;;;;5032950;28;20491;-54
2023/03/13 06:56:27;;;;;;;12.60;12.00;;;20.00;51.20;;;;;;5032897;28;20477;-53
2023/03/13 06:58:54;;;;;;;11.70;11.30;;;20.00;51.20;;;;;;5032706;28;20523;-53
2023/03/13 07:01:21;;;;;;;11.70;11.30;;;20.00;51.20;;;;;;5032880;28;20460;-58
2023/03/13 07:03:48;;;;;;;12.33;11.93;;;20.00;51.20;;;;;;5033062;28;20523;-58
2023/03/13 07:06:16;;;;;;;12.40;12.00;;;20.00;51.10;;;;;;5032861;28;20445;-58
2023/03/13 07:08:44;;;;;;;12.87;12.47;;;20.00;51.10;;;;;;5032427;28;20508;-58
2023/03/13 07:11:13;;;;;;;11.20;10.80;;;20.00;51.10;;;;;;5032377;28;20449;-58
2023/03/13 07:13:41;;;;;;;10.63;10.20;;;20.00;51.10;;;;;;5032574;28;20480;-55
2023/03/13 07:16:10;;;;;;;11.30;11.00;;;20.00;51.20;;;;;;5032493;28;20488;-56
2023/03/13 07:18:38;;;;;;;11.10;10.80;;;20.00;51.20;;;;;;5032351;28;20472;-55
2023/03/13 07:21:05;;;;;;;10.80;10.50;;;20.00;51.20;;;;;;5032384;28;20453;-57
2023/03/13 07:23:34;;;;;;;10.90;10.40;;;20.00;51.20;;;;;;5032317;28;20480;-54
2023/03/13 07:26:02;;;;;;;11.33;11.03;;;20.00;51.20;;;;;;5032506;28;20956;-53
2023/03/13 07:28:30;;;;;;;10.80;10.40;;;20.00;51.20;;;;;;5032227;28;20469;-57
2023/03/13 07:31:06;;;;;;;10.63;10.33;;;20.00;51.10;;;;;;5032255;28;20449;-54
2023/03/13 07:33:33;;;;;;;10.50;10.10;;;20.00;51.10;;;;;;5032344;28;20483;-53
2023/03/13 07:36:00;;;;;;;11.60;11.10;;;20.00;51.20;;;;;;5032179;28;20485;-57
2023/03/13 07:38:27;;;;;;;10.43;10.23;;;20.00;51.10;;;;;;5032118;28;20988;-54
2023/03/13 07:40:56;;;;;;;10.40;10.20;;;20.00;51.10;;;;;;5032155;28;20473;-56
2023/03/13 07:43:23;;;;;;;10.43;10.13;;;20.00;51.10;;;;;;5031989;28;20448;-53
2023/03/13 07:45:55;;;;;;;10.37;10.17;;;20.00;51.10;;;;;;5031871;28;20516;-54
2023/03/13 07:48:24;;;;;;;10.30;10.10;;;20.00;51.10;;;;;;5031491;28;20601;-55
2023/03/13 07:50:53;;;;;;;10.13;9.93;;;20.00;51.00;;;;;;5031966;28;20480;-56
2023/03/13 07:53:21;;;;;;;10.20;9.90;;;20.00;51.00;;;;;;5031649;28;20485;-55
2023/03/13 07:55:59;;;;;;;10.40;10.20;;;20.00;51.00;;;;;;5031851;28;20956;-58
2023/03/13 07:58:27;;;;;;;10.73;10.33;;;20.00;51.00;;;;;;5031862;28;20500;-56
2023/03/13 08:00:54;;;;;;;10.50;10.07;;;20.00;51.00;;;;;;5031939;28;20492;-55
2023/03/13 08:03:23;;;;;;;9.90;9.70;;;20.00;51.00;;;;;;5031688;28;20880;-55
2023/03/13 08:05:58;;;;;;;10.70;10.40;;;20.00;50.90;;;;;;5031526;28;20568;-57
2023/03/13 08:08:25;;;;;;;10.60;10.40;;;20.00;50.90;;;;;;5031539;28;20476;-56
2023/03/13 08:10:52;;;;;;;11.10;10.70;;;20.00;50.90;;;;;;5031663;28;20476;-57
2023/03/13 08:13:19;;;;;;;10.20;10.00;;;20.00;50.90;;;;;;5031369;28;20528;-59
2023/03/13 08:15:46;;;;;;;10.50;10.30;;;20.00;50.90;;;;;;5031795;28;20484;-53
2023/03/13 08:18:13;;;;;;;11.03;10.73;;;20.00;50.80;;;;;;5031631;28;20500;-55
2023/03/13 08:20:41;;;;;;;11.00;10.70;;;20.00;50.80;;;;;;5031470;28;20488;-53
2023/03/13 08:23:08;;;;;;;11.53;11.20;;;20.00;50.80;;;;;;5031315;28;20445;-53
2023/03/13 08:25:35;;;;;;;11.13;10.83;;;20.00;50.80;;;;;;5031774;28;20829;-54
2023/03/13 08:28:02;;;;;;;10.97;10.67;;;20.00;50.80;;;;;;5031343;28;20496;-54
2023/03/13 08:30:29;;;;;;;11.23;10.60;;;20.00;50.70;;;;;;5031440;28;20487;-54
2023/03/13 08:32:56;;;;;;;10.80;10.50;;;20.00;50.70;;;;;;5031327;28;20531;-53
2023/03/13 08:35:23;;;;;;;11.03;10.73;;;20.00;50.80;;;;;;5031421;28;20477;-54
2023/03/13 08:37:52;;;;;;;11.13;10.83;;;20.00;50.80;;;;;;5031193;28;20553;-53
2023/03/13 08:40:19;;;;;;;10.87;10.67;;;20.00;50.70;;;;;;5031661;28;21111;-54
2023/03/13 08:42:46;;;;;;;11.07;10.77;;;20.00;50.70;;;;;;5031142;28;20503;-54
2023/03/13 08:45:13;;;;;;;10.70;10.40;;;20.00;50.70;;;;;;5031492;28;20569;-53
2023/03/13 08:47:39;;;;;;;10.97;10.67;;;20.00;50.80;;;;;;5031919;28;20519;-55
2023/03/13 08:50:07;;;;;;;10.67;10.47;;;20.00;50.80;;;;;;5036128;28;20483;-52
2023/03/13 08:52:34;;;;;;;11.10;10.80;;;20.00;50.70;;;;;;5036432;28;20484;-52
2023/03/13 08:55:02;;;;;;;10.73;10.50;;;20.00;50.70;;;;;;5036035;28;20478;-55
2023/03/13 08:57:29;;;;;;;10.47;10.27;;;20.00;50.80;;;;;;5036094;28;20492;-51
2023/03/13 08:59:56;;;;;;;11.20;10.80;;;20.00;50.70;;;;;;5037001;28;20925;-51
2023/03/13 09:02:23;;;;;;;10.90;10.50;;;20.00;50.70;;;;;;5039904;28;20449;-53
2023/03/13 09:04:50;;;;;;;10.87;10.57;;;20.00;50.70;;;;;;5040822;28;20508;-54
2023/03/13 09:07:17;;;;;;;11.13;10.83;;;20.00;50.70;;;;;;5039372;28;20499;-52
2023/03/13 09:09:44;;;;;;;12.20;11.90;;;20.00;50.70;;;;;;5039537;28;20468;-51
2023/03/13 09:12:12;;;;;;;12.40;12.00;;;20.00;50.70;;;;;;5039281;28;20469;-51
2023/03/13 09:14:39;;;;;;;10.77;10.47;;;20.00;50.70;;;;;;5039083;28;20469;-54
2023/03/13 09:17:06;;;;;;;10.90;10.43;;;20.00;50.70;;;;;;5036094;28;20508;-58
2023/03/13 09:19:33;;;;;;;10.70;10.50;;;19.90;50.70;;;;;;5035582;28;20480;-56
2023/03/13 09:22:00;;;;;;;10.97;10.67;;;19.90;50.70;;;;;;5036772;28;20473;-55
2023/03/13 09:24:27;;;;;;;11.90;11.50;;;19.90;50.80;;;;;;5038497;28;20494;-51
2023/03/13 09:26:54;;;;;;;11.70;11.40;;;20.00;50.90;;;;;;5038959;28;20898;-54
2023/03/13 09:29:23;;;;;;;10.70;10.50;;;20.00;51.00;;;;;;5038631;28;20481;-51
2023/03/13 09:31:49;;;;;;;10.90;10.60;;;20.00;51.10;;;;;;5038110;28;20495;-52
2023/03/13 09:34:16;;;;;;;11.10;10.90;;;20.00;51.10;;;;;;5038370;28;20473;-54
2023/03/13 09:36:43;;;;;;;11.67;11.37;;;20.00;51.10;;;;;;5038280;28;20464;-53
2023/03/13 09:39:10;;;;;;;11.10;10.90;;;20.00;51.10;;;;;;5038398;28;20461;-51
2023/03/13 09:41:42;;;;;;;11.50;11.20;;;20.00;51.10;;;;;;5038285;28;20483;-54
2023/03/13 09:44:14;;;;;;;11.13;10.73;;;20.00;51.10;;;;;;5038541;28;20862;-54
2023/03/13 09:46:48;;;;;;;11.33;11.03;;;20.00;51.20;;;;;;5038525;28;20433;-51
2023/03/13 09:49:25;;;;;;;11.70;11.40;;;20.00;51.20;;;;;;5038568;28;20465;-50
2023/03/13 09:51:58;;;;;;;11.20;11.00;;;20.00;51.20;;;;;;5038079;28;20480;-52
2023/03/13 09:54:28;;;;;;;11.10;10.80;;;20.00;51.20;;;;;;5038457;28;20944;-51
2023/03/13 09:56:59;;;;;;;11.23;10.93;;;20.00;51.30;;;;;;5038447;28;21011;-51
2023/03/13 09:59:33;;;;;;;11.30;11.00;;;20.00;51.20;;;;;;5038316;28;20472;-53
2023/03/13 10:02:05;;;;;;;11.37;11.07;;;20.00;51.30;;;;;;5037684;28;20980;-51
2023/03/13 10:04:39;;;;;;;10.77;10.50;;;20.00;51.20;;;;;;5037499;28;20480;-54
2023/03/13 10:07:11;;;;;;;11.47;11.17;;;20.00;51.20;;;;;;5038090;28;20915;-54
2023/03/13 10:09:39;;;;;;;11.00;10.70;;;20.00;51.20;;;;;;5038311;28;20481;-56
2023/03/13 10:12:14;;;;;;;12.30;11.90;;;20.00;51.20;;;;;;5037805;28;20481;-52
2023/03/13 10:14:45;;;;;;;12.47;12.13;;;20.00;51.20;;;;;;5038036;28;20492;-54
2023/03/13 10:17:26;;;;;;;11.20;10.90;;;20.00;51.20;;;;;;5038316;28;20501;-52
2023/03/13 10:19:58;;;;;;;11.37;11.07;;;20.00;51.20;;;;;;5037800;28;20941;-50
2023/03/13 10:22:28;;;;;;;11.60;11.30;;;20.00;51.10;;;;;;5038422;28;20456;-52
2023/03/13 10:24:58;;;;;;;11.13;10.83;;;20.10;51.30;;;;;;5037466;28;20579;-52
2023/03/13 10:27:25;;;;;;;11.80;11.50;;;20.00;51.30;;;;;;5037978;28;20500;-54
2023/03/13 10:29:52;;;;;;;11.93;11.63;;;20.00;51.20;;;;;;5037903;28;20473;-52
2023/03/13 10:32:20;;;;;;;11.40;11.10;;;20.00;51.30;;;;;;5038221;28;20457;-51
2023/03/13 10:34:59;;;;;;;11.57;11.20;;;20.00;51.20;;;;;;5038063;28;20480;-53
2023/03/13 10:37:28;;;;;;;11.50;11.20;;;20.00;51.20;;;;;;5037605;28;20689;-52
2023/03/13 10:39:55;;;;;;;10.80;10.60;;;20.00;51.30;;;;;;5037746;28;20973;-51
2023/03/13 10:42:28;;;;;;;11.03;10.73;;;20.10;51.30;;;;;;5038085;28;20692;-53
2023/03/13 10:44:59;;;;;;;11.40;11.20;;;20.00;51.30;;;;;;5037918;28;20499;-53
2023/03/13 10:47:32;;;;;;;11.17;10.90;;;20.10;51.30;;;;;;5037406;28;20472;-50
2023/03/13 10:50:04;;;;;;;10.67;10.47;;;20.00;51.30;;;;;;5038234;28;20465;-53
2023/03/13 10:52:42;;;;;;;11.23;11.00;;;20.00;51.30;;;;;;5037242;28;20496;-51
2023/03/13 10:55:12;;;;;;;11.30;10.83;;;20.00;51.30;;;;;;5037883;28;20441;-55
2023/03/13 10:57:41;;;;;;;10.80;10.60;;;20.00;51.30;;;;;;5037826;28;20468;-54
2023/03/13 11:00:34;;;;;;;11.27;10.97;;;20.00;51.30;;;;;;5036811;28;20960;-53
2023/03/13 11:03:06;;;;;;;11.40;11.10;;;20.10;51.30;;;;;;5036811;28;20472;-52
2023/03/13 11:05:41;;;;;;;11.47;11.17;;;20.10;51.30;;;;;;5037401;28;20523;-53
2023/03/13 11:08:18;;;;;;;11.60;11.30;;;20.10;51.30;;;;;;5034319;28;20464;-58
2023/03/13 11:10:54;;;;;;;11.10;10.90;;;20.10;51.30;;;;;;5033788;28;20955;-57
2023/03/13 11:13:34;;;;;;;10.93;10.70;;;20.10;51.30;;;;;;5035738;28;20449;-54
2023/03/13 11:16:13;;;;;;;11.20;10.90;;;20.00;51.30;;;;;;5036649;28;20444;-52
2023/03/13 11:18:52;;;;;;;11.77;11.47;;;20.00;51.30;;;;;;5037157;28;20984;-51
2023/03/13 11:21:29;;;;;;;11.03;10.83;;;20.10;51.40;;;;;;5036907;28;20480;-55
2023/03/13 11:24:02;;;;;;;11.40;11.10;;;20.10;51.50;;;;;;5036644;28;20451;-51
2023/03/13 11:26:35;;;;;;;11.67;11.37;;;20.10;51.50;;;;;;5037335;28;20512;-50
2023/03/13 11:29:09;;;;;;;11.40;11.10;;;20.10;51.50;;;;;;5036883;28;20936;-52
2023/03/13 11:31:39;;;;;;;11.20;11.00;;;20.10;51.50;;;;;;5036863;28;20469;-53
2023/03/13 11:34:18;;;;;;;11.70;11.43;;;20.10;51.50;;;;;;5036889;28;20488;-51
2023/03/13 11:36:52;;;;;;;11.60;11.30;;;20.00;51.50;;;;;;5036821;28;20468;-54
2023/03/13 11:39:39;;;;;;;11.60;11.30;;;20.00;51.50;;;;;;5036912;28;20480;-53
2023/03/13 11:42:15;;;;;;;11.60;11.30;;;20.10;51.70;;;;;;5036189;28;20437;-55
2023/03/13 11:44:51;;;;;;;11.00;10.80;;;20.10;52.00;;;;;;5036539;28;20476;-53
2023/03/13 11:47:33;;;;;;;11.90;11.60;;;20.00;52.10;;;;;;5036351;28;20499;-54
2023/03/13 11:50:15;;;;;;;12.63;12.33;;;20.10;52.40;;;;;;5036524;28;20503;-50
2023/03/13 11:52:53;;;;;;;13.27;12.97;;;20.10;52.50;;;;;;5036711;28;20433;-50
2023/03/13 11:55:37;;;;;;;12.60;12.30;;;20.10;52.60;;;;;;5036946;28;20471;-52
2023/03/13 11:58:17;;;;;;;12.90;12.60;;;20.10;52.60;;;;;;5036789;28;20489;-53
2023/03/13 12:00:48;;;;;;;13.10;12.80;;;20.10;52.60;;;;;;5036400;28;20469;-50
2023/03/13 12:03:20;;;;;;;11.87;11.57;;;20.10;52.70;;;;;;5036408;28;20481;-51
2023/03/13 12:05:52;;;;;;;11.77;11.47;;;20.10;52.80;;;;;;5036190;28;20931;-53
2023/03/13 12:08:25;;;;;;;11.60;11.30;;;20.10;52.80;;;;;;5036387;28;20485;-51
2023/03/13 12:11:00;;;;;;;11.20;10.90;;;20.10;53.00;;;;;;5036716;28;20469;-55
2023/03/13 12:13:31;;;;;;;11.50;11.20;;;20.10;53.00;;;;;;5035716;28;20480;-51
2023/03/13 12:16:01;;;;;;;11.53;11.33;;;20.10;53.00;;;;;;5036018;28;20563;-56
2023/03/13 12:18:33;;;;;;;11.87;11.47;;;20.10;53.00;;;;;;5036102;28;20495;-51
2023/03/13 12:21:11;;;;;;;11.20;10.90;;;20.10;53.00;;;;;;5036155;28;20945;-52
2023/03/13 12:23:46;;;;;;;11.20;11.00;;;20.10;52.90;;;;;;5036461;28;20819;-51
2023/03/13 12:26:15;;;;;;;11.73;11.30;;;20.10;52.90;;;;;;5035847;28;20473;-55
2023/03/13 12:28:47;;;;;;;11.63;11.40;;;20.20;52.90;;;;;;5036210;28;20465;-52
2023/03/13 12:31:26;;;;;;;10.93;10.73;;;20.10;52.80;;;;;;5035960;28;20855;-51
2023/03/13 12:33:59;;;;;;;11.20;11.00;;;20.10;52.90;;;;;;5035612;28;20865;-54
2023/03/13 12:36:33;;;;;;;11.57;11.27;;;20.10;52.90;;;;;;5039093;28;20476;-52
2023/03/13 12:39:10;;;;;;;11.47;11.20;;;20.20;53.00;;;;;;5040034;28;20485;-52
2023/03/13 12:41:42;;;;;;;11.50;11.20;;;20.10;53.00;;;;;;5039650;28;20503;-51